Time;durP1;ratioP1;P1;durP2;ratioP2;P2;SDS_P1;SDS_P2;PMS_P1;PMS_P2;Temp;Humidity;BMP_temperature;BMP_pressure;BME280_temperature;BME280_humidity;BME280_pressure;Samples;Min_cycle;Max_cycle;Signal;HPM_P1;HPM_P2
2021/11/21 00:00:13;;;;;;;20.23;5.05;;;6.40;99.90;;;;;;4980345;28;20381;-93
2021/11/21 00:02:39;;;;;;;18.13;3.25;;;6.40;99.90;;;;;;4963762;28;20034;-94
2021/11/21 00:05:06;;;;;;;15.90;2.72;;;6.30;99.90;;;;;;4961726;28;20022;-95
2021/11/21 00:07:33;;;;;;;11.95;2.60;;;6.30;99.90;;;;;;4976758;28;20058;-94
2021/11/21 00:09:59;;;;;;;27.15;4.10;;;6.30;99.90;;;;;;4968601;28;20022;-94
2021/11/21 00:12:25;;;;;;;15.90;2.75;;;6.30;99.90;;;;;;4977338;28;20043;-94
2021/11/21 00:14:51;;;;;;;16.73;2.40;;;6.30;99.90;;;;;;4977952;28;20022;-95
2021/11/21 00:17:17;;;;;;;14.80;3.13;;;6.20;99.90;;;;;;4977728;28;20030;-95
2021/11/21 00:19:43;;;;;;;17.83;2.42;;;6.20;99.90;;;;;;4981516;28;20050;-95
2021/11/21 00:22:13;;;;;;;15.65;2.45;;;6.20;99.90;;;;;;4979687;28;20045;-94
2021/11/21 00:24:40;;;;;;;15.70;2.67;;;6.20;99.90;;;;;;4978423;28;20093;-95
2021/11/21 00:27:07;;;;;;;9.75;1.80;;;6.10;99.90;;;;;;4984002;28;20023;-96
2021/11/21 00:29:33;;;;;;;18.80;4.03;;;6.10;99.90;;;;;;4985648;28;20086;-95
2021/11/21 00:32:00;;;;;;;15.38;2.60;;;6.10;99.90;;;;;;4964193;28;20066;-94
2021/11/21 00:34:26;;;;;;;14.55;2.67;;;6.10;99.90;;;;;;4970100;28;20476;-95
2021/11/21 00:36:52;;;;;;;17.90;3.85;;;6.00;99.90;;;;;;4984983;28;20026;-95
2021/11/21 00:39:17;;;;;;;13.07;2.10;;;6.00;99.90;;;;;;4980804;28;20023;-95
2021/11/21 00:41:43;;;;;;;17.77;2.30;;;6.00;99.90;;;;;;4979361;28;20038;-94
2021/11/21 00:44:09;;;;;;;10.95;2.38;;;6.00;99.90;;;;;;4976614;28;20034;-94
2021/11/21 00:46:35;;;;;;;12.85;2.70;;;6.00;99.90;;;;;;4976241;28;20046;-94
2021/11/21 00:49:02;;;;;;;12.45;1.90;;;6.00;99.90;;;;;;4976227;28;20033;-94
2021/11/21 00:51:28;;;;;;;10.75;1.90;;;5.90;99.90;;;;;;4976359;28;20038;-94
2021/11/21 00:54:04;;;;;;;9.02;1.63;;;5.90;99.90;;;;;;4975853;28;20019;-95
2021/11/21 00:56:30;;;;;;;8.48;2.00;;;5.90;99.90;;;;;;4975779;28;20054;-95
2021/11/21 00:58:56;;;;;;;5.60;1.42;;;5.90;99.90;;;;;;4977396;28;20026;-94
2021/11/21 01:01:22;;;;;;;8.60;1.77;;;5.90;99.90;;;;;;4977134;28;20023;-95
2021/11/21 01:03:48;;;;;;;12.10;2.35;;;5.90;99.90;;;;;;4978122;28;20105;-94
2021/11/21 01:06:14;;;;;;;11.68;1.90;;;5.90;99.90;;;;;;4977413;28;20030;-94
2021/11/21 01:08:40;;;;;;;7.90;1.80;;;5.90;99.90;;;;;;4975863;28;20062;-94
2021/11/21 01:11:07;;;;;;;12.45;2.15;;;5.80;99.90;;;;;;4977763;28;20023;-94
2021/11/21 01:13:38;;;;;;;13.18;2.10;;;5.80;99.90;;;;;;4960391;28;20137;-94
2021/11/21 01:16:03;;;;;;;;;;;5.80;99.90;;;;;;4956916;29;20031;-95
2021/11/21 01:18:30;;;;;;;6.30;1.60;;;5.70;99.90;;;;;;4957102;29;19917;-94
2021/11/21 01:20:56;;;;;;;8.35;1.55;;;5.70;99.90;;;;;;4957007;29;20041;-94
2021/11/21 01:23:24;;;;;;;8.85;1.52;;;5.60;99.90;;;;;;4955372;28;20106;-96
2021/11/21 01:25:49;;;;;;;10.48;1.75;;;5.60;99.90;;;;;;4957342;28;20027;-94
2021/11/21 01:28:16;;;;;;;10.98;1.60;;;5.60;99.90;;;;;;4954941;29;20075;-94
2021/11/21 01:30:43;;;;;;;8.95;2.30;;;5.50;99.90;;;;;;4939925;29;20023;-93
2021/11/21 01:33:09;;;;;;;10.48;1.73;;;5.50;99.90;;;;;;4956984;28;20019;-94
2021/11/21 01:35:35;;;;;;;8.85;1.33;;;5.50;99.90;;;;;;4941889;28;20031;-93
2021/11/21 01:38:03;;;;;;;8.32;1.40;;;5.40;99.90;;;;;;4948719;29;20074;-95
2021/11/21 01:40:28;;;;;;;7.28;1.35;;;5.40;99.90;;;;;;4954513;28;20031;-94
2021/11/21 01:42:55;;;;;;;7.13;1.38;;;5.40;99.90;;;;;;4953519;29;20039;-94
2021/11/21 01:45:22;;;;;;;9.00;0.95;;;5.40;99.90;;;;;;4952714;29;20019;-93
2021/11/21 01:47:49;;;;;;;7.45;0.90;;;5.30;99.90;;;;;;4951943;28;20086;-93
2021/11/21 01:50:21;;;;;;;9.57;1.20;;;5.30;99.90;;;;;;4940024;29;20051;-95
2021/11/21 01:52:47;;;;;;;6.43;1.38;;;5.30;99.90;;;;;;4958633;29;20055;-95
2021/11/21 01:55:14;;;;;;;7.35;1.08;;;5.20;99.90;;;;;;4956216;29;20050;-94
2021/11/21 01:57:40;;;;;;;9.80;1.30;;;5.30;99.90;;;;;;4957373;29;20031;-95
2021/11/21 02:00:10;;;;;;;6.65;0.95;;;5.20;99.90;;;;;;4963886;29;20043;-94
2021/11/21 02:02:36;;;;;;;10.00;1.20;;;5.20;99.90;;;;;;4956786;29;20066;-94
2021/11/21 02:05:02;;;;;;;10.85;1.45;;;5.10;99.90;;;;;;4959620;28;20038;-94
2021/11/21 02:07:30;;;;;;;10.48;1.50;;;5.10;99.90;;;;;;4970278;29;20047;-95
2021/11/21 02:09:56;;;;;;;5.28;0.98;;;5.10;99.90;;;;;;4965365;28;20055;-94
2021/11/21 02:12:22;;;;;;;13.88;2.25;;;5.10;99.90;;;;;;4967459;28;20042;-94
2021/11/21 02:14:48;;;;;;;10.98;0.95;;;5.10;99.90;;;;;;4954021;28;20051;-94
2021/11/21 02:17:14;;;;;;;9.50;1.33;;;5.00;99.90;;;;;;4986557;28;20023;-94
2021/11/21 02:19:40;;;;;;;8.25;1.40;;;5.00;99.90;;;;;;4979025;28;20019;-95
2021/11/21 02:22:06;;;;;;;9.93;1.75;;;5.00;99.90;;;;;;4955457;28;20050;-94
2021/11/21 02:24:35;;;;;;;4.18;1.00;;;4.90;99.90;;;;;;4979337;28;20019;-94
2021/11/21 02:27:02;;;;;;;10.40;1.13;;;4.90;99.90;;;;;;4979005;28;20030;-95
2021/11/21 02:29:28;;;;;;;6.30;1.33;;;4.90;99.90;;;;;;4976712;28;20022;-93
2021/11/21 02:31:53;;;;;;;8.13;1.00;;;4.80;99.90;;;;;;4977201;28;20084;-95
2021/11/21 02:34:19;;;;;;;9.68;1.05;;;4.80;99.90;;;;;;4976888;28;20023;-96
2021/11/21 02:36:46;;;;;;;6.53;0.98;;;4.80;99.90;;;;;;4976235;28;20132;-94
2021/11/21 02:39:13;;;;;;;6.07;1.73;;;4.70;99.90;;;;;;4977333;28;20022;-94
2021/11/21 02:41:39;;;;;;;5.90;1.05;;;4.70;99.90;;;;;;4978645;28;20031;-94
2021/11/21 02:44:05;;;;;;;5.75;0.90;;;4.70;99.90;;;;;;4966721;28;20023;-94
2021/11/21 02:46:32;;;;;;;9.63;0.80;;;4.70;99.90;;;;;;4963766;28;20042;-94
2021/11/21 02:48:58;;;;;;;6.18;1.08;;;4.70;99.90;;;;;;4979087;28;20627;-95
2021/11/21 02:51:25;;;;;;;4.68;0.90;;;4.70;99.90;;;;;;4982462;28;20015;-95
2021/11/21 02:53:51;;;;;;;5.95;0.90;;;4.60;99.90;;;;;;4983804;28;20068;-94
2021/11/21 02:56:18;;;;;;;3.33;0.73;;;4.60;99.90;;;;;;4984210;28;20031;-95
2021/11/21 02:58:45;;;;;;;7.18;1.27;;;4.60;99.90;;;;;;4975449;28;20037;-94
2021/11/21 03:01:22;;;;;;;4.20;0.88;;;4.60;99.90;;;;;;4983783;28;20023;-95
2021/11/21 03:03:49;;;;;;;8.90;1.10;;;4.50;99.90;;;;;;4982987;28;20054;-94
2021/11/21 03:06:15;;;;;;;4.13;0.90;;;4.50;99.90;;;;;;4989243;28;20023;-95
2021/11/21 03:08:43;;;;;;;6.55;0.88;;;4.40;99.90;;;;;;4960880;28;20019;-95
2021/11/21 03:11:42;;;;;;;4.20;0.65;;;4.40;99.90;;;;;;4977598;28;20087;-95
2021/11/21 03:14:10;;;;;;;6.20;0.88;;;4.40;99.90;;;;;;4981505;28;20035;-96
2021/11/21 03:16:37;;;;;;;5.80;1.13;;;4.40;99.90;;;;;;4982825;28;20057;-94
2021/11/21 03:19:03;;;;;;;5.20;0.82;;;4.40;99.90;;;;;;4982161;28;20019;-95
2021/11/21 03:21:29;;;;;;;2.85;0.45;;;4.40;99.90;;;;;;4983343;28;20126;-95
2021/11/21 03:23:55;;;;;;;6.35;0.80;;;4.40;99.90;;;;;;4980894;28;20053;-94
2021/11/21 03:26:21;;;;;;;8.88;1.02;;;4.40;99.90;;;;;;4971902;28;20049;-94
2021/11/21 03:28:47;;;;;;;4.07;0.70;;;4.30;99.90;;;;;;4988074;28;20564;-95
2021/11/21 03:31:13;;;;;;;5.82;1.15;;;4.30;99.90;;;;;;4987317;28;20480;-95
2021/11/21 03:33:39;;;;;;;10.45;1.05;;;4.30;99.90;;;;;;4985948;28;20046;-94
2021/11/21 03:36:05;;;;;;;8.82;1.00;;;4.30;99.90;;;;;;4981562;28;20026;-95
2021/11/21 03:38:31;;;;;;;7.72;0.85;;;4.30;99.90;;;;;;4981861;28;20457;-94
2021/11/21 03:40:57;;;;;;;3.97;0.63;;;4.30;99.90;;;;;;4983448;28;20041;-94
2021/11/21 03:43:23;;;;;;;3.17;0.90;;;4.30;99.90;;;;;;4982219;28;20031;-94
2021/11/21 03:45:48;;;;;;;5.47;1.20;;;4.30;99.90;;;;;;4979094;28;20041;-94
2021/11/21 03:48:14;;;;;;;3.50;0.77;;;4.30;99.90;;;;;;4975747;28;20023;-94
2021/11/21 03:50:40;;;;;;;4.22;0.90;;;4.30;99.90;;;;;;4974645;28;20021;-95
2021/11/21 03:53:06;;;;;;;2.97;0.70;;;4.30;99.90;;;;;;4976816;28;20030;-95
2021/11/21 03:55:32;;;;;;;3.55;0.80;;;4.30;99.90;;;;;;4953962;28;20027;-94
2021/11/21 03:57:57;;;;;;;6.95;0.80;;;4.30;99.90;;;;;;4977628;28;20022;-96
2021/11/21 04:00:25;;;;;;;4.85;0.70;;;4.30;99.90;;;;;;4977058;28;20081;-94
2021/11/21 04:02:53;;;;;;;8.20;1.00;;;4.30;99.90;;;;;;4975081;28;20038;-94
2021/11/21 04:05:19;;;;;;;4.22;0.73;;;4.30;99.90;;;;;;4973336;28;20031;-95
2021/11/21 04:07:45;;;;;;;4.03;0.60;;;4.30;99.90;;;;;;4975145;28;20027;-95
2021/11/21 04:10:12;;;;;;;5.15;1.25;;;4.30;99.90;;;;;;4975363;28;20015;-95
2021/11/21 04:12:38;;;;;;;2.90;0.73;;;4.30;99.90;;;;;;4977783;28;20038;-95
2021/11/21 04:15:05;;;;;;;5.50;0.93;;;4.20;99.90;;;;;;4985058;28;20029;-94
2021/11/21 04:17:32;;;;;;;1.52;0.52;;;4.20;99.90;;;;;;4958690;28;20042;-95
2021/11/21 04:19:57;;;;;;;5.95;1.20;;;4.20;99.90;;;;;;4974460;28;20473;-93
2021/11/21 04:22:23;;;;;;;2.63;0.85;;;4.10;99.90;;;;;;4974829;28;20042;-94
2021/11/21 04:24:52;;;;;;;13.05;1.55;;;4.10;99.90;;;;;;4974469;28;20242;-94
2021/11/21 04:27:19;;;;;;;7.20;0.93;;;4.10;99.90;;;;;;4973689;28;20048;-93
2021/11/21 04:29:45;;;;;;;12.00;1.60;;;4.10;99.90;;;;;;4951013;28;20033;-94
2021/11/21 04:32:11;;;;;;;5.68;0.70;;;4.10;99.90;;;;;;4975613;28;20023;-94
2021/11/21 04:34:37;;;;;;;7.22;0.82;;;4.00;99.90;;;;;;4960359;28;20026;-94
2021/11/21 04:37:03;;;;;;;8.75;0.80;;;4.00;99.90;;;;;;4975848;28;20019;-94
2021/11/21 04:39:29;;;;;;;5.95;1.58;;;4.00;99.90;;;;;;4975895;28;20023;-94
2021/11/21 04:41:55;;;;;;;4.65;0.77;;;4.00;99.90;;;;;;4975455;28;20039;-93
2021/11/21 04:44:23;;;;;;;6.68;1.02;;;4.00;99.90;;;;;;4975332;28;20027;-96
2021/11/21 04:46:49;;;;;;;7.78;0.85;;;4.10;99.90;;;;;;4975364;28;20030;-94
2021/11/21 04:49:15;;;;;;;7.18;0.98;;;4.00;99.90;;;;;;4959658;28;20494;-95
2021/11/21 04:51:41;;;;;;;7.95;0.95;;;4.00;99.90;;;;;;4975675;28;20047;-93
2021/11/21 04:54:14;;;;;;;6.32;0.80;;;4.00;99.90;;;;;;4973115;28;20567;-93
2021/11/21 04:56:40;;;;;;;3.08;0.73;;;4.00;99.90;;;;;;4973818;28;20045;-94
2021/11/21 04:59:06;;;;;;;2.55;0.60;;;4.00;99.90;;;;;;4975892;28;20098;-94
2021/11/21 05:01:32;;;;;;;3.95;1.17;;;4.00;99.90;;;;;;4959926;28;20069;-94
2021/11/21 05:03:58;;;;;;;5.18;0.77;;;4.00;99.90;;;;;;4952274;28;20026;-96
2021/11/21 05:06:23;;;;;;;6.50;0.80;;;3.90;99.90;;;;;;4974869;28;20031;-94
2021/11/21 05:08:49;;;;;;;6.05;1.15;;;4.00;99.90;;;;;;4973417;28;20031;-94
2021/11/21 05:11:16;;;;;;;3.83;1.05;;;3.90;99.90;;;;;;4973660;28;20022;-96
2021/11/21 05:13:42;;;;;;;2.55;0.70;;;4.00;99.90;;;;;;4947636;28;20086;-94
2021/11/21 05:16:08;;;;;;;4.15;0.75;;;3.90;99.90;;;;;;4961881;28;20027;-95
2021/11/21 05:18:33;;;;;;;5.40;0.80;;;3.90;99.90;;;;;;4944588;29;20031;-94
2021/11/21 05:20:59;;;;;;;8.27;1.90;;;3.90;99.90;;;;;;4961498;28;20043;-95
2021/11/21 05:23:25;;;;;;;7.45;0.80;;;3.90;99.90;;;;;;4945362;29;20038;-94
2021/11/21 05:25:50;;;;;;;4.55;0.65;;;3.90;99.90;;;;;;4946619;29;20039;-95
2021/11/21 05:28:16;;;;;;;4.78;0.98;;;3.90;99.90;;;;;;4946241;29;20058;-94
2021/11/21 05:30:47;;;;;;;3.08;0.70;;;3.90;99.90;;;;;;4945984;29;20031;-94
2021/11/21 05:33:14;;;;;;;3.03;0.50;;;3.90;99.90;;;;;;4950831;29;20083;-95
2021/11/21 05:35:40;;;;;;;6.93;1.98;;;3.90;99.90;;;;;;4957141;29;20071;-94
2021/11/21 05:38:06;;;;;;;6.53;0.88;;;4.00;99.90;;;;;;4937412;29;20028;-95
2021/11/21 05:40:32;;;;;;;7.25;0.93;;;4.00;99.90;;;;;;4941149;29;20038;-94
2021/11/21 05:42:58;;;;;;;5.78;0.52;;;3.90;99.90;;;;;;4956727;29;20043;-95
2021/11/21 05:45:24;;;;;;;6.68;0.65;;;4.00;99.90;;;;;;4959182;29;20023;-96
2021/11/21 05:47:51;;;;;;;5.63;1.27;;;4.00;99.90;;;;;;4960999;29;20055;-95
2021/11/21 05:50:22;;;;;;;7.63;2.85;;;4.00;99.90;;;;;;4960887;29;20020;-95
2021/11/21 05:52:49;;;;;;;3.72;0.85;;;4.00;99.90;;;;;;4944342;29;20032;-95
2021/11/21 05:55:22;;;;;;;5.65;0.82;;;4.00;99.90;;;;;;4959137;29;20047;-95
2021/11/21 05:58:00;;;;;;;3.97;1.38;;;4.10;99.90;;;;;;4968098;29;20036;-95
2021/11/21 06:00:30;;;;;;;2.08;0.50;;;4.10;99.90;;;;;;4978086;28;20031;-94
2021/11/21 06:03:08;;;;;;;;;;;4.00;99.90;;;;;;4968494;29;20032;-95
2021/11/21 06:08:40;;;;;;;8.02;0.70;;;4.00;99.90;;;;;;4962522;29;20064;-95
2021/11/21 06:11:14;;;;;;;5.40;0.60;;;4.00;99.90;;;;;;4946031;29;20055;-95
2021/11/21 06:13:54;;;;;;;2.25;0.52;;;4.00;99.90;;;;;;4974675;28;20075;-95
2021/11/21 06:16:24;;;;;;;4.70;0.80;;;4.00;99.90;;;;;;4993109;28;20009;-94
2021/11/21 06:19:04;;;;;;;4.82;0.80;;;4.00;99.90;;;;;;4996116;28;20034;-95
2021/11/21 06:21:33;;;;;;;2.33;0.40;;;4.00;99.90;;;;;;4995077;28;20082;-95
2021/11/21 06:24:01;;;;;;;2.92;0.57;;;4.10;99.90;;;;;;4986841;28;20019;-96
2021/11/21 06:26:29;;;;;;;8.35;1.10;;;4.10;99.90;;;;;;4970505;28;20038;-95
2021/11/21 06:28:57;;;;;;;4.93;0.68;;;4.20;99.90;;;;;;4984505;28;20058;-96
2021/11/21 06:31:29;;;;;;;3.05;0.52;;;4.30;99.90;;;;;;4970027;28;20034;-96
2021/11/21 06:33:56;;;;;;;6.15;0.90;;;4.30;99.90;;;;;;4981264;28;20050;-94
2021/11/21 06:36:24;;;;;;;4.60;0.70;;;4.30;99.90;;;;;;4963900;28;20114;-95
2021/11/21 06:38:50;;;;;;;3.50;0.50;;;4.30;99.90;;;;;;4965643;28;20023;-94
2021/11/21 06:41:16;;;;;;;3.22;0.65;;;4.30;99.90;;;;;;4978998;28;20033;-95
2021/11/21 06:43:41;;;;;;;3.72;0.60;;;4.30;99.90;;;;;;4986561;28;20387;-95
2021/11/21 06:46:10;;;;;;;3.35;0.77;;;4.30;99.90;;;;;;4986878;28;20077;-94
2021/11/21 06:48:36;;;;;;;4.85;0.95;;;4.20;99.90;;;;;;4963284;28;20023;-95
2021/11/21 06:51:04;;;;;;;2.03;0.45;;;4.20;99.90;;;;;;4962433;28;20046;-96
2021/11/21 06:53:30;;;;;;;3.60;0.60;;;4.20;99.90;;;;;;4964059;28;20087;-95
2021/11/21 06:55:56;;;;;;;2.80;0.50;;;4.20;99.90;;;;;;4964951;28;20182;-96
2021/11/21 06:58:25;;;;;;;4.55;0.70;;;4.20;99.90;;;;;;4984388;28;20103;-94
2021/11/21 07:00:51;;;;;;;4.38;0.68;;;4.20;99.90;;;;;;4982765;28;20033;-94
2021/11/21 07:03:16;;;;;;;4.15;0.70;;;4.20;99.90;;;;;;4982352;28;20500;-94
2021/11/21 07:05:42;;;;;;;2.85;0.40;;;4.20;99.90;;;;;;4968519;28;20050;-95
2021/11/21 07:08:10;;;;;;;1.50;0.52;;;4.20;99.90;;;;;;4971556;28;20055;-96
2021/11/21 07:10:37;;;;;;;4.47;0.80;;;4.20;99.90;;;;;;4990826;28;20027;-96
2021/11/21 07:13:04;;;;;;;2.22;0.82;;;4.20;99.90;;;;;;4961291;28;20133;-94
2021/11/21 07:15:31;;;;;;;5.15;0.90;;;4.20;99.90;;;;;;4989172;28;20019;-95
2021/11/21 07:18:00;;;;;;;6.28;0.52;;;4.10;99.90;;;;;;4992041;28;20062;-95
2021/11/21 07:20:28;;;;;;;2.50;0.50;;;4.10;99.90;;;;;;4981495;28;20232;-95
2021/11/21 07:23:25;;;;;;;3.53;0.60;;;4.10;99.90;;;;;;4981057;28;20294;-95
2021/11/21 07:25:56;;;;;;;7.30;0.90;;;4.10;99.90;;;;;;4978742;28;20082;-95
2021/11/21 07:28:31;;;;;;;4.22;0.65;;;4.20;99.90;;;;;;4975223;28;20027;-96
2021/11/21 07:30:59;;;;;;;2.60;0.63;;;4.10;99.90;;;;;;4967274;28;20069;-95
2021/11/21 07:33:28;;;;;;;2.50;0.75;;;4.10;99.90;;;;;;4982788;28;20053;-96
2021/11/21 07:35:55;;;;;;;6.78;0.77;;;4.10;99.90;;;;;;4997168;28;20041;-95
2021/11/21 07:38:22;;;;;;;7.13;1.15;;;4.10;99.90;;;;;;4979062;28;20027;-94
2021/11/21 07:40:49;;;;;;;3.03;0.55;;;4.00;99.90;;;;;;4968877;28;20046;-95
2021/11/21 07:43:15;;;;;;;3.45;0.70;;;4.10;99.90;;;;;;4984177;28;20030;-95
2021/11/21 07:45:44;;;;;;;3.53;0.68;;;4.10;99.90;;;;;;4984171;28;20037;-95
2021/11/21 07:48:17;;;;;;;3.58;0.80;;;4.10;99.90;;;;;;4993993;28;20037;-95
2021/11/21 07:50:44;;;;;;;4.30;0.60;;;4.10;99.90;;;;;;4983507;28;20523;-94
2021/11/21 07:53:09;;;;;;;3.00;1.27;;;4.10;99.90;;;;;;4978022;28;20029;-95
2021/11/21 07:55:35;;;;;;;1.90;0.60;;;4.10;99.90;;;;;;4978197;28;20114;-95
2021/11/21 07:58:04;;;;;;;2.83;0.95;;;4.10;99.90;;;;;;4980230;28;20138;-95
2021/11/21 08:00:30;;;;;;;4.35;0.88;;;4.10;99.90;;;;;;4983504;28;20063;-95
2021/11/21 08:02:57;;;;;;;2.92;0.55;;;4.10;99.90;;;;;;4964435;28;20043;-94
2021/11/21 08:05:26;;;;;;;5.95;0.73;;;4.10;99.90;;;;;;4986729;28;20127;-96
2021/11/21 08:07:55;;;;;;;5.20;1.38;;;4.20;99.90;;;;;;4977539;28;20038;-95
2021/11/21 08:10:21;;;;;;;3.45;0.85;;;4.20;99.90;;;;;;4964392;28;20102;-94
2021/11/21 08:12:50;;;;;;;4.18;0.70;;;4.20;99.90;;;;;;4978096;28;20082;-93
2021/11/21 08:15:20;;;;;;;10.43;1.73;;;4.20;99.90;;;;;;4992399;28;20023;-95
2021/11/21 08:17:53;;;;;;;2.10;0.70;;;4.20;99.90;;;;;;4969930;28;20022;-95
2021/11/21 08:20:20;;;;;;;3.63;0.73;;;4.20;99.90;;;;;;4960207;28;20286;-95
2021/11/21 08:22:54;;;;;;;2.00;0.57;;;4.20;99.90;;;;;;4978369;28;20046;-96
2021/11/21 08:25:23;;;;;;;1.90;0.60;;;4.20;99.90;;;;;;4954242;28;20022;-94
2021/11/21 08:27:52;;;;;;;2.17;0.35;;;4.30;99.90;;;;;;4959380;28;20027;-95
2021/11/21 08:30:19;;;;;;;4.90;0.65;;;4.30;99.90;;;;;;4977288;28;20015;-93
2021/11/21 08:32:45;;;;;;;3.88;0.55;;;4.30;99.90;;;;;;4964614;28;20022;-95
2021/11/21 08:35:11;;;;;;;3.28;0.50;;;4.30;99.90;;;;;;4977007;28;20027;-94
2021/11/21 08:37:37;;;;;;;2.70;0.52;;;4.20;99.90;;;;;;4959599;28;20496;-94
2021/11/21 08:40:04;;;;;;;4.28;0.57;;;4.30;99.90;;;;;;4972809;28;20023;-94
2021/11/21 08:42:34;;;;;;;3.38;0.90;;;4.20;99.90;;;;;;4974064;28;20488;-95
2021/11/21 08:45:08;;;;;;;5.60;0.82;;;4.30;99.90;;;;;;4959904;28;20045;-94
2021/11/21 08:47:35;;;;;;;3.22;0.60;;;4.30;99.90;;;;;;4975359;28;20019;-95
2021/11/21 08:50:04;;;;;;;8.27;0.70;;;4.30;99.90;;;;;;4964071;28;20125;-95
2021/11/21 08:52:33;;;;;;;2.63;1.00;;;4.30;99.90;;;;;;4974977;28;20043;-95
2021/11/21 08:55:07;;;;;;;4.93;0.50;;;4.40;99.90;;;;;;4978742;28;20023;-95
2021/11/21 08:57:40;;;;;;;3.63;0.60;;;4.40;99.90;;;;;;4983728;28;20050;-96
2021/11/21 09:00:09;;;;;;;4.07;0.50;;;4.40;99.90;;;;;;4982040;28;20340;-95
2021/11/21 09:02:38;;;;;;;5.07;0.60;;;4.50;99.90;;;;;;4959247;28;20043;-94
2021/11/21 09:05:09;;;;;;;4.85;0.40;;;4.60;99.90;;;;;;4966215;28;20027;-95
2021/11/21 09:07:41;;;;;;;2.05;0.75;;;4.60;99.90;;;;;;4980945;28;20030;-95
2021/11/21 09:10:14;;;;;;;4.60;0.50;;;4.70;99.90;;;;;;4961140;28;20590;-94
2021/11/21 09:12:41;;;;;;;1.77;0.60;;;4.90;99.90;;;;;;4978662;28;20039;-95
2021/11/21 09:15:14;;;;;;;3.50;0.50;;;5.00;99.90;;;;;;4966925;28;20128;-95
2021/11/21 09:17:50;;;;;;;3.75;0.32;;;5.10;99.90;;;;;;4962108;28;20035;-95
2021/11/21 09:20:16;;;;;;;3.33;0.52;;;5.30;99.90;;;;;;4981656;28;20035;-94
2021/11/21 09:22:50;;;;;;;4.25;0.57;;;5.50;99.90;;;;;;4987504;28;20039;-95
2021/11/21 09:25:17;;;;;;;1.13;0.60;;;5.70;99.90;;;;;;4982243;28;20041;-95
2021/11/21 09:27:43;;;;;;;1.88;0.35;;;5.80;99.90;;;;;;4971309;28;20022;-94
2021/11/21 09:30:12;;;;;;;3.65;0.77;;;6.00;99.90;;;;;;4984353;28;20023;-93
2021/11/21 09:32:39;;;;;;;3.03;0.43;;;6.10;99.90;;;;;;4980357;28;20500;-96
2021/11/21 09:35:10;;;;;;;1.88;0.47;;;6.30;99.90;;;;;;4957595;28;20126;-94
2021/11/21 09:37:38;;;;;;;4.32;0.68;;;6.40;99.90;;;;;;4977228;28;20029;-93
2021/11/21 09:40:10;;;;;;;1.60;0.40;;;6.50;99.90;;;;;;4980187;28;20027;-95
2021/11/21 09:42:49;;;;;;;2.17;0.40;;;6.70;99.90;;;;;;4982853;28;20046;-94
2021/11/21 09:45:22;;;;;;;0.93;0.47;;;6.80;99.90;;;;;;4985749;28;20015;-95
2021/11/21 09:47:54;;;;;;;0.55;0.30;;;6.90;99.90;;;;;;4991677;28;20050;-94
2021/11/21 09:50:21;;;;;;;1.77;0.40;;;7.10;99.90;;;;;;4974092;28;20019;-95
2021/11/21 09:52:50;;;;;;;3.05;0.47;;;7.20;99.90;;;;;;4957117;28;20042;-94
2021/11/21 09:55:16;;;;;;;1.38;0.40;;;7.20;99.90;;;;;;4961926;28;20031;-94
2021/11/21 09:57:43;;;;;;;3.33;0.38;;;7.40;99.90;;;;;;4969597;28;20029;-94
2021/11/21 10:00:16;;;;;;;1.35;0.35;;;7.50;99.90;;;;;;4983080;28;20057;-95
2021/11/21 10:02:47;;;;;;;3.47;0.75;;;7.70;99.90;;;;;;4976867;28;20066;-95
2021/11/21 10:05:25;;;;;;;2.67;0.68;;;7.80;99.90;;;;;;4984197;28;20151;-94
2021/11/21 10:08:07;;;;;;;3.00;0.60;;;7.90;99.70;;;;;;4992151;28;20062;-95
2021/11/21 10:10:48;;;;;;;4.40;0.68;;;8.10;99.20;;;;;;4965502;28;20011;-95
2021/11/21 10:13:35;;;;;;;0.95;0.45;;;8.20;97.90;;;;;;4980240;28;20043;-95
2021/11/21 10:16:36;;;;;;;0.82;0.30;;;8.20;97.10;;;;;;4977011;28;20026;-94
2021/11/21 10:19:10;;;;;;;4.30;0.65;;;8.40;97.00;;;;;;4971549;28;20027;-95
2021/11/21 10:21:45;;;;;;;4.25;0.57;;;8.60;96.40;;;;;;4980141;28;20034;-95
2021/11/21 10:24:34;;;;;;;4.72;0.65;;;8.70;95.50;;;;;;4986002;28;20039;-96
2021/11/21 10:27:12;;;;;;;2.30;0.63;;;8.80;94.90;;;;;;4978335;28;20038;-95
2021/11/21 10:29:40;;;;;;;2.75;0.52;;;8.90;94.10;;;;;;4979097;28;20614;-94
2021/11/21 10:32:33;;;;;;;3.42;0.73;;;9.00;93.80;;;;;;4969463;28;20023;-95
2021/11/21 10:35:02;;;;;;;4.70;0.93;;;9.10;93.10;;;;;;4977999;28;20081;-94
2021/11/21 10:37:33;;;;;;;3.45;1.17;;;9.30;92.60;;;;;;4984019;28;20027;-95
2021/11/21 10:40:00;;;;;;;;;;;9.40;92.20;;;;;;4969298;28;20027;-95
2021/11/21 10:42:26;;;;;;;4.15;0.85;;;9.70;92.20;;;;;;4970173;28;19918;-95
2021/11/21 10:44:53;;;;;;;7.60;1.30;;;9.80;91.60;;;;;;4986762;28;20030;-95
2021/11/21 10:47:18;;;;;;;2.60;0.98;;;9.90;91.00;;;;;;4974069;28;20073;-93
2021/11/21 10:49:51;;;;;;;3.58;0.65;;;10.00;90.20;;;;;;4978877;28;20026;-94
2021/11/21 10:52:23;;;;;;;2.25;0.52;;;10.00;89.60;;;;;;4979249;28;20124;-94
2021/11/21 10:54:59;;;;;;;5.40;0.63;;;10.10;88.30;;;;;;4962422;28;20030;-96
2021/11/21 10:57:39;;;;;;;2.03;0.60;;;10.20;88.30;;;;;;4980062;28;20027;-95
2021/11/21 11:00:34;;;;;;;2.22;0.47;;;10.30;87.20;;;;;;4982790;28;20039;-94
2021/11/21 11:03:39;;;;;;;2.33;0.35;;;10.40;86.20;;;;;;4981834;28;20042;-94
2021/11/21 11:06:26;;;;;;;0.75;0.40;;;10.50;86.20;;;;;;4982652;28;20033;-95
2021/11/21 11:08:52;;;;;;;0.95;0.40;;;10.60;85.10;;;;;;4985459;28;20023;-95
2021/11/21 11:11:24;;;;;;;2.22;0.75;;;10.80;84.90;;;;;;4985048;28;20126;-95
2021/11/21 11:13:53;;;;;;;3.53;0.52;;;11.00;84.20;;;;;;4964984;28;20055;-95
2021/11/21 11:16:23;;;;;;;1.58;0.43;;;11.20;82.80;;;;;;4978659;28;20117;-96
2021/11/21 11:18:49;;;;;;;2.28;0.40;;;11.20;81.80;;;;;;4979065;28;20066;-95
2021/11/21 11:21:16;;;;;;;2.33;0.70;;;11.20;80.90;;;;;;4980137;28;20050;-96
2021/11/21 11:23:43;;;;;;;3.97;0.50;;;11.30;81.10;;;;;;4979327;28;20102;-95
2021/11/21 11:26:10;;;;;;;4.28;0.57;;;11.40;80.20;;;;;;4976304;28;20031;-95
2021/11/21 11:28:48;;;;;;;3.10;0.50;;;11.20;79.60;;;;;;4984563;28;20022;-95
2021/11/21 11:31:28;;;;;;;2.03;0.50;;;11.20;79.50;;;;;;4970721;28;20023;-95
2021/11/21 11:34:04;;;;;;;2.70;0.40;;;11.10;79.50;;;;;;4989175;28;20030;-96
2021/11/21 11:36:54;;;;;;;2.45;0.57;;;11.10;78.60;;;;;;4972923;28;20089;-96
2021/11/21 11:39:38;;;;;;;4.10;0.45;;;11.10;78.70;;;;;;4989343;28;20082;-95
2021/11/21 11:42:41;;;;;;;3.42;0.45;;;11.40;78.70;;;;;;4988526;28;20050;-96
2021/11/21 11:45:10;;;;;;;2.95;0.55;;;11.60;77.00;;;;;;4982197;28;20111;-95
2021/11/21 11:47:39;;;;;;;5.30;0.60;;;11.70;76.20;;;;;;4985240;28;20090;-95
2021/11/21 11:50:50;;;;;;;3.08;0.50;;;11.60;75.30;;;;;;4983625;28;20090;-95
2021/11/21 11:53:39;;;;;;;5.25;0.60;;;11.70;75.20;;;;;;4968838;28;20035;-96
2021/11/21 11:56:17;;;;;;;2.35;0.43;;;11.80;75.20;;;;;;4985474;28;20027;-96
2021/11/21 11:58:56;;;;;;;2.80;0.70;;;12.20;74.70;;;;;;4982543;28;20027;-95
2021/11/21 12:01:40;;;;;;;3.13;0.50;;;12.50;74.20;;;;;;4970380;28;20027;-95
2021/11/21 12:04:28;;;;;;;5.38;0.60;;;12.80;73.10;;;;;;4965987;28;20115;-96
2021/11/21 12:07:00;;;;;;;4.55;0.60;;;13.00;72.00;;;;;;4982793;28;20125;-95
2021/11/21 12:09:53;;;;;;;3.85;0.70;;;13.10;70.80;;;;;;4970882;28;20046;-95
2021/11/21 12:12:21;;;;;;;2.53;0.60;;;13.10;70.40;;;;;;4983529;28;20047;-95
2021/11/21 12:14:48;;;;;;;2.60;0.52;;;13.20;70.10;;;;;;4980768;28;20031;-95
2021/11/21 12:17:16;;;;;;;3.65;0.45;;;13.20;69.40;;;;;;4978726;28;20035;-96
2021/11/21 12:19:46;;;;;;;2.05;0.50;;;13.10;69.30;;;;;;4981910;28;20023;-96
2021/11/21 12:22:32;;;;;;;4.78;0.52;;;13.20;69.50;;;;;;4984158;28;20107;-96
2021/11/21 12:25:08;;;;;;;2.30;0.40;;;13.20;68.90;;;;;;4983995;28;20027;-96
2021/11/21 12:28:02;;;;;;;2.72;0.50;;;13.30;69.00;;;;;;4987476;28;20026;-96
2021/11/21 12:30:31;;;;;;;3.15;1.02;;;13.40;68.20;;;;;;4975505;28;20396;-95
2021/11/21 12:33:02;;;;;;;4.32;0.88;;;13.60;67.90;;;;;;4990919;28;20121;-96
2021/11/21 12:35:44;;;;;;;1.88;0.45;;;13.80;67.20;;;;;;4976674;28;20100;-96
2021/11/21 12:38:22;;;;;;;1.45;0.60;;;14.00;66.70;;;;;;4992874;28;20090;-96
2021/11/21 12:40:52;;;;;;;2.97;0.57;;;14.20;65.50;;;;;;4975385;28;20049;-95
2021/11/21 12:43:20;;;;;;;1.05;0.45;;;14.20;64.90;;;;;;4986645;28;20113;-96
2021/11/21 12:45:53;;;;;;;2.45;0.65;;;14.40;64.60;;;;;;4987907;28;20051;-96
2021/11/21 12:48:25;;;;;;;3.95;1.10;;;14.40;64.00;;;;;;4971807;28;20035;-96
2021/11/21 12:50:51;;;;;;;1.55;0.70;;;14.30;63.80;;;;;;4982026;28;20031;-95
2021/11/21 12:53:25;;;;;;;2.10;0.38;;;13.90;63.80;;;;;;4968943;28;20165;-95
2021/11/21 12:56:06;;;;;;;1.25;0.38;;;13.40;64.00;;;;;;4980309;28;20031;-95
2021/11/21 12:58:43;;;;;;;5.22;0.60;;;13.10;65.50;;;;;;4981892;28;20039;-95
2021/11/21 13:01:11;;;;;;;1.75;0.50;;;12.80;66.10;;;;;;4983271;28;20034;-96
2021/11/21 13:03:38;;;;;;;1.55;0.45;;;12.40;66.40;;;;;;4980536;28;20042;-95
2021/11/21 13:06:10;;;;;;;3.30;0.50;;;12.10;67.10;;;;;;4966468;28;20030;-96
2021/11/21 13:08:50;;;;;;;2.67;0.50;;;12.20;68.00;;;;;;4990940;28;20073;-95
2021/11/21 13:14:55;;;;;;;1.63;0.70;;;12.50;67.50;;;;;;4913129;28;20130;-96